Shin Puropan Maru — JG5508 — position and weather

sailwx.info

Track history (hours):
 
Tides and Currents Weather Stations Pressure Air Temp Water Temp Dewpoint Dewpoint Depression Visibility Wind Speed Wind Dir Waves Ship Positions

Shin Puropan Maru

Last reported at 2015-May-25 07:30 UTC. Time now 2015-May-27 05:54 UTC.
Position N 34°00' E 135°01'.

Length 66 m; draft 4.5 m.

Type: Ship (hazmat cat A). MMSI: 431100348.

Date/timePositionNaut miles runAvg speedWind from/ knotsBaromVisibWave heightAir tempDewpointWater temp
2015-May-25 07:30N 34°00' E 135°01'1212.2
2015-May-25 06:32N 34°12' E 134°59'2211.0
2015-May-25 04:34N 34°30' E 135°13'1111.0
2015-May-25 03:34N 34°36' E 135°25'1 0.3
2015-May-24 22:33N 34°35' E 135°26'2 1.5
2015-May-24 21:16N 34°35' E 135°23'0 0.0
2015-May-24 20:28N 34°35' E 135°23'0 0.0
2015-May-24 19:16N 34°35' E 135°23'0 0.0
2015-May-24 18:22N 34°35' E 135°23'0 0.0
2015-May-24 17:22N 34°35' E 135°23'0 0.0
2015-May-24 16:28N 34°35' E 135°23'0 0.0
2015-May-24 15:28N 34°35' E 135°23'0 0.0
2015-May-24 14:28N 34°35' E 135°23'0 0.0
2015-May-24 13:28N 34°35' E 135°23'0 0.0
2015-May-24 12:28N 34°35' E 135°23'1 0.5
2015-May-24 11:33N 34°35' E 135°23'3 0.5
2015-May-24 06:29N 34°34' E 135°26'2 2.6
2015-May-24 05:33N 34°35' E 135°23'3 0.5
2015-May-23 23:33N 34°33' E 135°25'5 4.1
2015-May-23 22:27N 34°32' E 135°20'0 0.0
2015-May-23 21:33N 34°32' E 135°20'0 0.0
2015-May-23 20:33N 34°32' E 135°20'0 0.0
2015-May-23 19:33N 34°32' E 135°20'0 0.0
2015-May-23 18:33N 34°32' E 135°20'0 0.0
2015-May-23 17:09N 34°32' E 135°20'0 0.0
2015-May-23 16:33N 34°32' E 135°20'0 0.0
2015-May-23 14:24N 34°32' E 135°20'0 0.0
2015-May-23 13:06N 34°32' E 135°20'0 0.0
2015-May-23 12:18N 34°32' E 135°20'0 0.0
2015-May-23 09:30N 34°32' E 135°20'0 0.1
2015-May-23 08:30N 34°32' E 135°20'0 0.0
2015-May-23 05:24N 34°32' E 135°20'0 0.0
2015-May-23 04:18N 34°32' E 135°20'1 1.7
2015-May-23 03:33N 34°32' E 135°18'6 6.5
2015-May-23 02:33N 34°34' E 135°26'0 0.0
2015-May-22 23:33N 34°34' E 135°26'6 6.3
2015-May-22 22:33N 34°32' E 135°18'1111.6
2015-May-22 21:33N 34°25' E 135°08'1210.0
2015-May-22 20:20N 34°15' E 134°60'911.6
2015-May-22 19:32N 34°05' E 135°00'  
2015-May-20 12:04N 34°12' E 134°59'1510.0
2015-May-20 10:34N 34°25' E 135°07'1312.7
2015-May-20 09:33N 34°32' E 135°20'4 0.9
2015-May-20 05:22N 34°32' E 135°25'2 2.7
2015-May-20 04:33N 34°33' E 135°23'1 0.5
2015-May-20 03:16N 34°34' E 135°23'0 0.0
2015-May-20 02:22N 34°34' E 135°23'0 0.3
2015-May-20 01:33N 34°34' E 135°23'2 0.7
2015-May-19 22:33N 34°34' E 135°26'2 1.0
2015-May-19 20:17N 34°35' E 135°23'0 0.0
2015-May-19 19:23N 34°35' E 135°23'0 0.0
2015-May-19 18:29N 34°35' E 135°23'0 0.0
2015-May-19 17:29N 34°35' E 135°23'0 0.1
2015-May-19 16:23N 34°35' E 135°23'0 0.0
2015-May-19 15:29N 34°35' E 135°23'0 0.0
2015-May-19 14:29N 34°35' E 135°23'0 0.0
2015-May-19 13:11N 34°35' E 135°23'0 0.0
2015-May-19 12:23N 34°35' E 135°23'0 0.0
2015-May-19 11:17N 34°35' E 135°23'0 0.1
2015-May-19 10:29N 34°35' E 135°23'0 0.0
2015-May-19 08:23N 34°35' E 135°23'0 0.0
2015-May-19 04:29N 34°35' E 135°23'0 0.0
2015-May-19 03:23N 34°35' E 135°23'0 0.1
2015-May-19 02:29N 34°35' E 135°23'0 0.0
2015-May-19 01:29N 34°35' E 135°23'0 0.0
2015-May-19 00:23N 34°35' E 135°23'0 0.1
2015-May-18 23:29N 34°35' E 135°23'0 0.0
2015-May-18 22:23N 34°35' E 135°23'1 1.1
2015-May-18 21:33N 34°35' E 135°22'1211.9
2015-May-18 20:33N 34°27' E 135°11'1211.4
2015-May-18 19:32N 34°19' E 135°01'1010.2
2015-May-18 18:33N 34°09' E 134°60'6 0.2
2015-May-17 05:33N 34°04' E 134°59'1413.7
2015-May-17 04:33N 34°18' E 134°59'1313.1
2015-May-17 03:33N 34°27' E 135°09'1212.5
2015-May-17 02:33N 34°35' E 135°21'4 1.0
2015-May-16 22:33N 34°34' E 135°26'2 2.0
2015-May-16 21:20N 34°35' E 135°23'0 0.0
2015-May-16 20:14N 34°36' E 135°23'0 0.0
2015-May-16 19:08N 34°36' E 135°23'0 0.0
2015-May-16 17:32N 34°36' E 135°23'0 0.0
2015-May-16 16:14N 34°35' E 135°23'0 0.0
2015-May-16 15:32N 34°35' E 135°23'0 0.0
2015-May-16 14:26N 34°35' E 135°23'0 0.0
2015-May-16 13:14N 34°35' E 135°23'3 2.1
2015-May-16 11:33N 34°34' E 135°19'1212.3
2015-May-16 10:33N 34°25' E 135°08'1312.3
2015-May-16 09:29N 34°15' E 134°59'232 8.9
2015-May-15 07:33N 35°04' E 139°35'  
Track history (hours):
 
Tides and Currents Weather Stations Pressure Air Temp Water Temp Dewpoint Dewpoint Depression Visibility Wind Speed Wind Dir Waves Ship Positions

Shin Puropan Maru

Last reported at 2015-May-25 07:30 UTC. Time now 2015-May-27 05:54 UTC.
Position N 34°00' E 135°01'.

Length 66 m; draft 4.5 m.

Type: Ship (hazmat cat A). MMSI: 431100348.

Date/timePositionNaut miles runAvg speedWind from/ knotsBaromVisibWave heightAir tempDewpointWater temp
2015-May-25 07:30N 34°00' E 135°01'1212.2
2015-May-25 06:32N 34°12' E 134°59'2211.0
2015-May-25 04:34N 34°30' E 135°13'1111.0
2015-May-25 03:34N 34°36' E 135°25'1 0.3
2015-May-24 22:33N 34°35' E 135°26'2 1.5
2015-May-24 21:16N 34°35' E 135°23'0 0.0
2015-May-24 20:28N 34°35' E 135°23'0 0.0
2015-May-24 19:16N 34°35' E 135°23'0 0.0
2015-May-24 18:22N 34°35' E 135°23'0 0.0
2015-May-24 17:22N 34°35' E 135°23'0 0.0
2015-May-24 16:28N 34°35' E 135°23'0 0.0
2015-May-24 15:28N 34°35' E 135°23'0 0.0
2015-May-24 14:28N 34°35' E 135°23'0 0.0
2015-May-24 13:28N 34°35' E 135°23'0 0.0
2015-May-24 12:28N 34°35' E 135°23'1 0.5
2015-May-24 11:33N 34°35' E 135°23'3 0.5
2015-May-24 06:29N 34°34' E 135°26'2 2.6
2015-May-24 05:33N 34°35' E 135°23'3 0.5
2015-May-23 23:33N 34°33' E 135°25'5 4.1
2015-May-23 22:27N 34°32' E 135°20'0 0.0
2015-May-23 21:33N 34°32' E 135°20'0 0.0
2015-May-23 20:33N 34°32' E 135°20'0 0.0
2015-May-23 19:33N 34°32' E 135°20'0 0.0
2015-May-23 18:33N 34°32' E 135°20'0 0.0
2015-May-23 17:09N 34°32' E 135°20'0 0.0
2015-May-23 16:33N 34°32' E 135°20'0 0.0
2015-May-23 14:24N 34°32' E 135°20'0 0.0
2015-May-23 13:06N 34°32' E 135°20'0 0.0
2015-May-23 12:18N 34°32' E 135°20'0 0.0
2015-May-23 09:30N 34°32' E 135°20'0 0.1
2015-May-23 08:30N 34°32' E 135°20'0 0.0
2015-May-23 05:24N 34°32' E 135°20'0 0.0
2015-May-23 04:18N 34°32' E 135°20'1 1.7
2015-May-23 03:33N 34°32' E 135°18'6 6.5
2015-May-23 02:33N 34°34' E 135°26'0 0.0
2015-May-22 23:33N 34°34' E 135°26'6 6.3
2015-May-22 22:33N 34°32' E 135°18'1111.6
2015-May-22 21:33N 34°25' E 135°08'1210.0
2015-May-22 20:20N 34°15' E 134°60'911.6
2015-May-22 19:32N 34°05' E 135°00'  
2015-May-20 12:04N 34°12' E 134°59'1510.0
2015-May-20 10:34N 34°25' E 135°07'1312.7
2015-May-20 09:33N 34°32' E 135°20'4 0.9
2015-May-20 05:22N 34°32' E 135°25'2 2.7
2015-May-20 04:33N 34°33' E 135°23'1 0.5
2015-May-20 03:16N 34°34' E 135°23'0 0.0
2015-May-20 02:22N 34°34' E 135°23'0 0.3
2015-May-20 01:33N 34°34' E 135°23'2 0.7
2015-May-19 22:33N 34°34' E 135°26'2 1.0
2015-May-19 20:17N 34°35' E 135°23'0 0.0
2015-May-19 19:23N 34°35' E 135°23'0 0.0
2015-May-19 18:29N 34°35' E 135°23'0 0.0
2015-May-19 17:29N 34°35' E 135°23'0 0.1
2015-May-19 16:23N 34°35' E 135°23'0 0.0
2015-May-19 15:29N 34°35' E 135°23'0 0.0
2015-May-19 14:29N 34°35' E 135°23'0 0.0
2015-May-19 13:11N 34°35' E 135°23'0 0.0
2015-May-19 12:23N 34°35' E 135°23'0 0.0
2015-May-19 11:17N 34°35' E 135°23'0 0.1
2015-May-19 10:29N 34°35' E 135°23'0 0.0
2015-May-19 08:23N 34°35' E 135°23'0 0.0
2015-May-19 04:29N 34°35' E 135°23'0 0.0
2015-May-19 03:23N 34°35' E 135°23'0 0.1
2015-May-19 02:29N 34°35' E 135°23'0 0.0
2015-May-19 01:29N 34°35' E 135°23'0 0.0
2015-May-19 00:23N 34°35' E 135°23'0 0.1
2015-May-18 23:29N 34°35' E 135°23'0 0.0
2015-May-18 22:23N 34°35' E 135°23'1 1.1
2015-May-18 21:33N 34°35' E 135°22'1211.9
2015-May-18 20:33N 34°27' E 135°11'1211.4
2015-May-18 19:32N 34°19' E 135°01'1010.2
2015-May-18 18:33N 34°09' E 134°60'6 0.2
2015-May-17 05:33N 34°04' E 134°59'1413.7
2015-May-17 04:33N 34°18' E 134°59'1313.1
2015-May-17 03:33N 34°27' E 135°09'1212.5
2015-May-17 02:33N 34°35' E 135°21'4 1.0
2015-May-16 22:33N 34°34' E 135°26'2 2.0
2015-May-16 21:20N 34°35' E 135°23'0 0.0
2015-May-16 20:14N 34°36' E 135°23'0 0.0
2015-May-16 19:08N 34°36' E 135°23'0 0.0
2015-May-16 17:32N 34°36' E 135°23'0 0.0
2015-May-16 16:14N 34°35' E 135°23'0 0.0
2015-May-16 15:32N 34°35' E 135°23'0 0.0
2015-May-16 14:26N 34°35' E 135°23'0 0.0
2015-May-16 13:14N 34°35' E 135°23'3 2.1
2015-May-16 11:33N 34°34' E 135°19'1212.3
2015-May-16 10:33N 34°25' E 135°08'1312.3
2015-May-16 09:29N 34°15' E 134°59'232 8.9
2015-May-15 07:33N 35°04' E 139°35'  

Dump ship's entire track history